createdAt,value
2018-03-01T00:05:17.965Z,76
2018-03-01T00:10:45.125Z,76
2018-03-01T00:16:11.835Z,76
2018-03-01T00:21:38.504Z,76
2018-03-01T00:27:06.255Z,75
2018-03-01T00:32:32.974Z,75
2018-03-01T00:38:00.688Z,75
2018-03-01T00:43:28.396Z,75
2018-03-01T00:48:56.058Z,75
2018-03-01T00:54:23.754Z,75
2018-03-01T00:59:50.415Z,75
2018-03-01T01:05:17.090Z,75
2018-03-01T01:10:44.786Z,74
2018-03-01T01:16:12.417Z,74
2018-03-01T01:21:40.184Z,75
2018-03-01T01:27:06.938Z,75
2018-03-01T01:32:33.387Z,74
2018-03-01T01:38:00.044Z,74
2018-03-01T01:43:26.682Z,74
2018-03-01T01:48:53.351Z,74
2018-03-01T01:54:20.007Z,74
2018-03-01T01:59:48.137Z,74
2018-03-01T02:05:15.544Z,74
2018-03-01T02:10:43.083Z,74
2018-03-01T02:16:09.756Z,74
2018-03-01T02:21:36.499Z,75
2018-03-01T02:27:04.046Z,75
2018-03-01T02:32:31.767Z,74
2018-03-01T02:37:59.389Z,75
2018-03-01T02:43:27.062Z,75
2018-03-01T02:48:53.722Z,74
2018-03-01T02:54:21.403Z,74
2018-03-01T02:59:49.010Z,74
2018-03-01T03:05:15.698Z,74
2018-03-01T03:10:42.283Z,74
2018-03-01T03:16:09.945Z,74
2018-03-01T03:21:36.607Z,74
2018-03-01T03:27:03.291Z,75
2018-03-01T03:32:29.916Z,74
2018-03-01T03:37:56.616Z,75
2018-03-01T03:43:23.236Z,75
2018-03-01T03:48:50.865Z,75
2018-03-01T03:54:17.528Z,75
2018-03-01T03:59:45.173Z,75
2018-03-01T04:05:11.864Z,75
2018-03-01T04:10:38.547Z,75
2018-03-01T04:16:06.413Z,76
2018-03-01T04:21:33.070Z,76
2018-03-01T04:26:59.787Z,76
2018-03-01T04:32:27.806Z,77
2018-03-01T04:37:55.371Z,77
2018-03-01T04:43:22.097Z,77
2018-03-01T04:48:49.214Z,77
2018-03-01T04:54:16.760Z,77
2018-03-01T04:59:43.551Z,78
2018-03-01T05:05:10.414Z,78
2018-03-01T05:10:37.127Z,78
2018-03-01T05:16:03.971Z,78
2018-03-01T05:21:31.786Z,78
2018-03-01T05:26:58.606Z,78
2018-03-01T05:32:25.427Z,79
2018-03-01T05:37:52.347Z,79
2018-03-01T05:43:20.140Z,79
2018-03-01T05:48:48.438Z,79
2018-03-01T05:54:14.705Z,79
2018-03-01T05:59:42.454Z,79
2018-03-01T06:05:09.285Z,79
2018-03-01T06:10:37.046Z,79
2018-03-01T06:16:03.873Z,79
2018-03-01T06:21:30.692Z,79
2018-03-01T06:26:57.382Z,79
2018-03-01T06:32:24.198Z,79
2018-03-01T06:37:51.955Z,79
2018-03-01T06:43:19.770Z,79
2018-03-01T06:48:47.517Z,79
2018-03-01T06:54:15.308Z,79
2018-03-01T06:59:42.148Z,79
2018-03-01T07:05:10.018Z,79
2018-03-01T07:10:37.723Z,79
2018-03-01T07:16:05.553Z,79
2018-03-01T07:21:33.416Z,79
2018-03-01T07:27:01.290Z,79
2018-03-01T07:32:28.173Z,79
2018-03-01T07:37:55.011Z,79
2018-03-01T07:43:22.894Z,79
2018-03-01T07:48:49.784Z,79
2018-03-01T07:54:16.640Z,79
2018-03-01T07:59:44.488Z,79
2018-03-01T08:05:12.389Z,79
2018-03-01T08:10:39.282Z,79
2018-03-01T08:16:06.167Z,79
2018-03-01T08:21:33.064Z,79
2018-03-01T08:26:59.934Z,79
2018-03-01T08:32:27.908Z,80
2018-03-01T08:37:54.783Z,80
2018-03-01T08:43:22.705Z,80
2018-03-01T08:48:50.611Z,80
2018-03-01T08:54:18.415Z,80
2018-03-01T08:59:45.234Z,80
2018-03-01T09:05:13.100Z,80
2018-03-01T09:10:41.177Z,80
2018-03-01T09:16:07.787Z,80
2018-03-01T09:21:34.748Z,79
2018-03-01T09:27:02.566Z,79
2018-03-01T09:32:29.504Z,79
2018-03-01T09:37:56.369Z,80
2018-03-01T09:43:23.284Z,80
2018-03-01T09:48:50.197Z,80
2018-03-01T09:54:18.015Z,80
2018-03-01T09:59:44.914Z,79
2018-03-01T10:10:40.733Z,79
2018-03-01T10:16:08.910Z,79
2018-03-01T10:21:36.689Z,79
2018-03-01T10:27:04.769Z,79
2018-03-01T10:32:32.077Z,79
2018-03-01T10:37:59.886Z,79
2018-03-01T10:43:27.272Z,79
2018-03-01T10:48:54.099Z,79
2018-03-01T10:54:21.212Z,79
2018-03-01T10:59:49.349Z,79
2018-03-01T11:05:17.765Z,79
2018-03-01T11:10:45.642Z,79
2018-03-01T11:16:13.757Z,78
2018-03-01T11:21:41.930Z,78
2018-03-01T11:27:09.047Z,78
2018-03-01T11:32:36.190Z,78
2018-03-01T11:38:04.327Z,78
2018-03-01T11:43:31.516Z,77
2018-03-01T11:48:58.748Z,77
2018-03-01T11:54:27.013Z,78
2018-03-01T11:59:54.669Z,79
2018-03-01T12:05:22.537Z,79
2018-03-01T12:10:49.712Z,79
2018-03-01T12:16:16.993Z,79
2018-03-01T12:21:45.207Z,79
2018-03-01T12:27:13.516Z,78
2018-03-01T12:32:41.885Z,78
2018-03-01T12:38:10.360Z,79
2018-03-01T12:43:38.793Z,80
2018-03-01T12:49:06.137Z,79
2018-03-01T12:54:34.403Z,79
2018-03-01T13:00:02.824Z,78
2018-03-01T13:05:30.207Z,77
2018-03-01T13:10:57.734Z,78
2018-03-01T13:16:25.238Z,78
2018-03-01T13:21:52.745Z,78
2018-03-01T13:27:20.267Z,78
2018-03-01T13:32:47.675Z,79
2018-03-01T13:38:15.050Z,78
2018-03-01T13:43:42.380Z,77
2018-03-01T13:49:10.593Z,76
2018-03-01T13:54:38.754Z,76
2018-03-01T14:00:05.856Z,75
2018-03-01T14:16:28.105Z,73
2018-03-01T14:21:55.211Z,73
2018-03-01T14:27:22.339Z,73
2018-03-01T14:32:50.478Z,73
2018-03-01T14:38:17.485Z,73
2018-03-01T14:43:45.581Z,73
2018-03-01T14:49:13.698Z,73
2018-03-01T14:54:41.766Z,73
2018-03-01T15:00:09.874Z,73
2018-03-01T15:05:37.938Z,73
2018-03-01T15:11:05.942Z,73
2018-03-01T15:16:33.101Z,73
2018-03-01T15:22:01.017Z,73
2018-03-01T15:27:28.016Z,73
2018-03-01T15:32:55.061Z,73
2018-03-01T15:38:23.096Z,74
2018-03-01T15:43:50.120Z,73
2018-03-01T15:49:17.140Z,74
2018-03-01T15:54:45.184Z,74
2018-03-01T16:00:12.755Z,74
2018-03-01T16:05:39.154Z,74
2018-03-01T16:11:07.141Z,74
2018-03-01T16:16:34.100Z,74
2018-03-01T16:22:02.075Z,74
2018-03-01T16:27:30.153Z,74
2018-03-01T16:32:56.996Z,75
2018-03-01T16:38:24.969Z,75
2018-03-01T16:43:51.887Z,75
2018-03-01T16:49:19.846Z,75
2018-03-01T16:54:46.795Z,75
2018-03-01T17:00:13.696Z,75
2018-03-01T17:05:40.661Z,75
2018-03-01T17:11:07.627Z,75
2018-03-01T17:16:34.527Z,75
2018-03-01T17:22:02.485Z,75
2018-03-01T17:27:29.404Z,75
2018-03-01T17:32:57.345Z,75
2018-03-01T17:38:24.393Z,76
2018-03-01T17:43:52.192Z,75
2018-03-01T17:49:20.155Z,75
2018-03-01T17:54:48.087Z,75
2018-03-01T18:00:15.957Z,75
2018-03-01T18:05:43.897Z,75
2018-03-01T18:11:10.815Z,75
2018-03-01T18:16:37.715Z,75
2018-03-01T18:22:04.656Z,76
2018-03-01T18:27:31.597Z,75
2018-03-01T18:32:59.520Z,76
2018-03-01T18:38:26.418Z,76
2018-03-01T18:43:53.373Z,76
2018-03-01T18:49:21.288Z,76
2018-03-01T18:54:49.205Z,76
2018-03-01T19:00:16.140Z,76
2018-03-01T19:05:44.042Z,76
2018-03-01T19:11:10.975Z,76
2018-03-01T19:16:38.942Z,76
2018-03-01T19:22:06.833Z,76
2018-03-01T19:27:34.798Z,76
2018-03-01T19:33:02.756Z,76
2018-03-01T19:38:30.674Z,76
2018-03-01T19:43:58.639Z,76
2018-03-01T19:49:25.540Z,76
2018-03-01T19:54:52.466Z,76
2018-03-01T20:00:19.393Z,76
2018-03-01T20:05:47.305Z,76
2018-03-01T20:11:14.244Z,76
2018-03-01T20:16:41.124Z,76
2018-03-01T20:22:09.062Z,76
2018-03-01T20:27:35.992Z,76
2018-03-01T20:33:03.957Z,76
2018-03-01T20:38:31.814Z,77
2018-03-01T20:43:58.743Z,77
2018-03-01T20:49:26.630Z,77
2018-03-01T20:54:53.728Z,77
2018-03-01T21:00:20.462Z,77
2018-03-01T21:05:47.368Z,77
2018-03-01T21:11:15.288Z,77
2018-03-01T21:16:43.228Z,77
2018-03-01T21:22:10.125Z,77
2018-03-01T21:27:37.053Z,77
2018-03-01T21:33:04.929Z,77
2018-03-01T21:38:31.870Z,77
2018-03-01T21:43:59.753Z,77
2018-03-01T21:49:27.655Z,77
2018-03-01T21:54:54.601Z,78
2018-03-01T22:00:22.636Z,78
2018-03-01T22:05:49.405Z,78
2018-03-01T22:11:16.299Z,78
2018-03-01T22:16:43.221Z,78
2018-03-01T22:22:10.182Z,78
2018-03-01T22:27:37.125Z,78
2018-03-01T22:33:04.996Z,78
2018-03-01T22:38:31.900Z,78
2018-03-01T22:43:59.821Z,78
2018-03-01T22:49:27.698Z,78
2018-03-01T22:54:54.750Z,78
2018-03-01T23:00:21.539Z,78
2018-03-01T23:05:48.432Z,78
2018-03-01T23:11:15.387Z,78
2018-03-01T23:16:42.260Z,78
2018-03-01T23:22:09.147Z,78
2018-03-01T23:27:36.071Z,78
2018-03-01T23:33:03.015Z,79
2018-03-01T23:38:29.892Z,79
2018-03-01T23:43:56.803Z,79
2018-03-01T23:49:24.744Z,79
2018-03-01T23:54:51.661Z,79
